Time;durP1;ratioP1;P1;durP2;ratioP2;P2;SDS_P1;SDS_P2;PMS_P1;PMS_P2;Temp;Humidity;BMP_temperature;BMP_pressure;BME280_temperature;BME280_humidity;BME280_pressure;Samples;Min_cycle;Max_cycle;Signal;HPM_P1;HPM_P2
2022/01/08 00:02:10;;;;;;;4.50;4.10;;;1.60;99.90;;;2.38;92.06;97489.59;5217180;28;20199;-65
2022/01/08 00:04:44;;;;;;;3.97;3.67;;;1.60;99.90;;;2.33;91.97;97500.94;5219253;28;20215;-66
2022/01/08 00:07:17;;;;;;;3.70;3.17;;;1.50;99.90;;;2.32;92.00;97502.56;5222476;28;20799;-66
2022/01/08 00:09:50;;;;;;;3.67;3.47;;;1.50;99.90;;;2.23;92.53;97495.13;5224298;28;20566;-66
2022/01/08 00:12:24;;;;;;;3.73;3.53;;;1.50;99.90;;;2.19;91.81;97498.13;5223704;28;20545;-66
2022/01/08 00:14:57;;;;;;;3.93;3.63;;;1.50;99.90;;;2.20;92.03;97504.06;5221824;28;20231;-66
2022/01/08 00:17:30;;;;;;;4.40;4.07;;;1.40;99.90;;;2.20;92.67;97502.44;5224563;28;20772;-65
2022/01/08 00:20:07;;;;;;;3.97;3.60;;;1.40;99.90;;;2.16;92.97;97502.94;5226563;28;20295;-66
2022/01/08 00:22:40;;;;;;;4.57;4.17;;;1.40;99.90;;;2.30;90.70;97493.13;5215186;28;20285;-65
2022/01/08 00:25:13;;;;;;;3.93;3.63;;;1.50;99.90;;;2.18;91.45;97481.25;5220977;28;20649;-66
2022/01/08 00:27:46;;;;;;;4.80;4.40;;;1.50;99.90;;;2.28;90.33;97476.97;5223199;28;20722;-65
2022/01/08 00:30:20;;;;;;;4.07;3.77;;;1.50;99.90;;;2.16;91.46;97472.69;5226572;28;20648;-66
2022/01/08 00:32:53;;;;;;;3.90;3.60;;;1.40;99.90;;;2.17;91.94;97460.94;5221994;28;20208;-65
2022/01/08 00:35:28;;;;;;;4.57;4.27;;;1.40;99.90;;;2.30;87.44;97465.38;5215964;28;20609;-66
2022/01/08 00:38:02;;;;;;;4.10;3.90;;;1.60;99.90;;;2.17;89.24;97464.34;5219442;28;20280;-65
2022/01/08 00:40:35;;;;;;;4.10;3.80;;;1.50;99.90;;;1.93;89.23;97462.34;5214293;28;20201;-65
2022/01/08 00:43:08;;;;;;;4.47;4.10;;;1.40;99.90;;;2.01;89.77;97451.25;5220977;28;20243;-66
2022/01/08 00:45:42;;;;;;;4.03;3.73;;;1.40;99.90;;;2.01;89.35;97451.25;5223554;28;20201;-66
2022/01/08 00:48:15;;;;;;;3.73;3.43;;;1.30;99.90;;;2.01;90.50;97446.22;5225328;28;20718;-65
2022/01/08 00:50:50;;;;;;;3.97;3.67;;;1.30;99.90;;;2.11;88.16;97438.66;5222667;28;20292;-66
2022/01/08 00:53:23;;;;;;;4.13;3.83;;;1.50;99.90;;;1.99;90.20;97447.72;5218014;28;20626;-66
2022/01/08 00:55:56;;;;;;;4.50;4.13;;;1.40;99.90;;;1.92;90.98;97453.03;5219463;28;20200;-66
2022/01/08 00:58:29;;;;;;;4.67;4.30;;;1.30;99.90;;;1.85;90.42;97443.19;5214670;28;20205;-66
2022/01/08 01:01:02;;;;;;;4.83;4.53;;;1.30;99.90;;;1.92;91.18;97437.91;5224442;28;20208;-65
2022/01/08 01:03:35;;;;;;;4.40;4.10;;;1.20;99.90;;;1.95;92.40;97440.69;5222574;28;20217;-65
2022/01/08 01:06:10;;;;;;;4.97;4.57;;;1.30;99.90;;;1.91;89.38;97443.69;5216480;28;20210;-65
2022/01/08 01:08:43;;;;;;;4.40;4.00;;;1.30;99.90;;;1.95;90.61;97443.19;5218703;28;20569;-66
2022/01/08 01:11:16;;;;;;;4.57;4.27;;;1.30;99.90;;;2.03;90.07;97424.53;5225088;28;20593;-66
2022/01/08 01:13:49;;;;;;;3.97;3.77;;;1.30;99.90;;;1.98;90.42;97413.22;5212222;28;20222;-66
2022/01/08 01:16:22;;;;;;;4.47;4.17;;;1.30;99.90;;;1.92;90.85;97415.22;5222351;28;20192;-64
2022/01/08 01:18:57;;;;;;;4.37;4.07;;;1.40;99.90;;;1.87;92.81;97407.28;5214489;28;20201;-66
2022/01/08 01:21:32;;;;;;;4.30;3.97;;;1.30;99.90;;;1.94;93.99;97406.13;5220161;28;20201;-65
2022/01/08 01:24:12;;;;;;;4.13;3.83;;;1.30;99.90;;;1.92;94.34;97401.00;5217928;28;20230;-66
2022/01/08 01:27:03;;;;;;;3.83;3.60;;;1.20;99.90;;;2.04;94.69;97403.63;5220238;28;20207;-66
2022/01/08 01:29:46;;;;;;;3.67;3.47;;;1.20;99.90;;;1.95;94.84;97390.28;5218745;28;20212;-66
2022/01/08 01:41:16;;;;;;;4.03;3.73;;;1.10;99.90;;;1.89;96.13;97364.56;5202344;28;20198;-66
2022/01/08 01:47:02;;;;;;;5.70;5.17;;;1.20;99.90;;;2.04;94.81;97358.25;5218668;28;20206;-66
2022/01/08 01:49:38;;;;;;;4.30;4.00;;;1.30;99.90;;;1.97;95.59;97348.44;5212914;28;20564;-66
2022/01/08 01:52:15;;;;;;;4.10;3.80;;;1.20;99.90;;;1.93;96.31;97341.38;5219388;28;20197;-66
2022/01/08 01:54:49;;;;;;;5.50;5.00;;;1.20;99.90;;;1.90;97.55;97338.63;5215592;28;20235;-65
2022/01/08 01:57:22;;;;;;;4.70;4.30;;;1.20;99.90;;;1.91;97.50;97332.81;5224373;28;20196;-66
2022/01/08 01:59:56;;;;;;;5.60;5.13;;;1.20;99.90;;;1.89;97.02;97332.72;5217949;28;20197;-66
2022/01/08 02:02:29;;;;;;;5.13;4.73;;;1.20;99.90;;;1.96;97.29;97321.47;5214657;28;20199;-65
2022/01/08 02:05:02;;;;;;;5.00;4.67;;;1.20;99.90;;;1.87;97.15;97320.75;5216350;28;20632;-65
2022/01/08 02:07:35;;;;;;;4.67;4.37;;;1.10;99.90;;;1.88;97.33;97317.44;5214047;28;20221;-66
2022/01/08 02:10:10;;;;;;;4.27;3.97;;;1.10;99.90;;;1.88;97.69;97314.94;5224127;28;20224;-66
2022/01/08 02:12:43;;;;;;;4.87;4.47;;;1.20;99.90;;;1.89;97.82;97314.16;5223987;28;20212;-65
2022/01/08 02:15:17;;;;;;;5.00;4.60;;;1.20;99.90;;;1.91;98.83;97305.09;5221753;28;20295;-65
2022/01/08 02:17:50;;;;;;;5.83;5.23;;;1.20;99.90;;;1.90;98.65;97295.78;5225099;28;20197;-65
2022/01/08 02:20:24;;;;;;;5.10;4.70;;;1.20;99.90;;;1.99;98.48;97297.41;5224245;28;20213;-65
2022/01/08 02:22:57;;;;;;;5.30;4.83;;;1.30;99.90;;;2.03;98.23;97293.47;5217925;28;20223;-65
2022/01/08 02:25:30;;;;;;;4.77;4.37;;;1.40;99.90;;;2.06;98.57;97283.66;5213171;28;20204;-65
2022/01/08 02:28:04;;;;;;;5.97;5.40;;;1.40;99.90;;;2.03;97.93;97269.19;5218690;28;20218;-66
2022/01/08 02:30:37;;;;;;;5.23;4.83;;;1.40;99.90;;;2.11;97.14;97252.13;5214230;28;20295;-65
2022/01/08 02:33:11;;;;;;;4.70;4.27;;;1.50;99.90;;;2.23;96.68;97243.03;5215609;28;20320;-65
2022/01/08 02:35:45;;;;;;;5.07;4.57;;;1.60;99.90;;;2.39;94.73;97229.97;5223218;28;20671;-65
2022/01/08 02:38:18;;;;;;;5.40;4.93;;;1.80;99.90;;;2.38;96.32;97223.19;5222097;28;20189;-65
2022/01/08 02:40:56;;;;;;;5.80;5.30;;;1.80;99.90;;;2.52;94.41;97206.59;5217307;28;20740;-65
2022/01/08 02:43:33;;;;;;;7.60;5.30;;;1.90;99.90;;;2.60;93.77;97200.47;5226033;28;20217;-64
2022/01/08 02:46:06;;;;;;;5.37;4.93;;;2.00;99.90;;;2.49;94.53;97208.88;5228172;28;20212;-64
2022/01/08 02:48:39;;;;;;;4.97;4.60;;;2.00;99.90;;;2.42;94.97;97196.53;5226511;28;20221;-65
2022/01/08 02:51:13;;;;;;;5.03;4.60;;;1.90;99.90;;;2.51;94.40;97183.75;5224097;28;20664;-65
2022/01/08 02:53:46;;;;;;;5.20;4.80;;;2.00;99.90;;;2.49;95.63;97183.66;5225986;28;20238;-65
2022/01/08 02:56:19;;;;;;;5.13;4.73;;;2.00;99.90;;;2.52;96.26;97183.00;5228178;28;20249;-65
2022/01/08 02:58:53;;;;;;;4.90;4.50;;;2.00;99.90;;;2.55;96.27;97183.22;5224674;28;20203;-66
2022/01/08 03:01:26;;;;;;;5.27;4.77;;;2.00;99.90;;;2.60;97.02;97175.25;5241335;22;20226;-67
2022/01/08 03:03:59;;;;;;;5.07;4.73;;;2.00;99.90;;;2.62;96.95;97170.34;5240729;28;20193;-65
2022/01/08 03:06:34;;;;;;;5.53;5.13;;;2.00;99.90;;;2.65;97.00;97168.03;5239788;28;20208;-66
2022/01/08 03:09:08;;;;;;;5.07;4.67;;;2.00;99.90;;;2.62;96.77;97162.75;5248533;28;20219;-66
2022/01/08 03:11:41;;;;;;;5.43;4.93;;;1.90;99.90;;;2.48;97.14;97154.13;5247779;28;20217;-67
2022/01/08 03:14:14;;;;;;;4.97;4.50;;;1.90;99.90;;;2.51;98.14;97154.38;5249351;28;20200;-67
2022/01/08 03:16:47;;;;;;;5.97;5.37;;;1.90;99.90;;;2.55;98.08;97145.38;5246017;28;20201;-66
2022/01/08 03:19:20;;;;;;;5.53;5.03;;;1.90;99.90;;;2.50;98.46;97142.53;5248689;28;20199;-66
2022/01/08 03:21:56;;;;;;;5.30;4.80;;;1.80;99.90;;;2.48;98.79;97131.44;5241320;28;20220;-67
2022/01/08 03:24:29;;;;;;;4.90;4.50;;;1.80;99.90;;;2.49;98.98;97135.75;5248756;28;20200;-65
2022/01/08 03:27:03;;;;;;;5.93;5.43;;;1.80;99.90;;;2.48;99.06;97133.97;5246444;28;20193;-66
2022/01/08 03:29:36;;;;;;;5.40;4.90;;;1.80;99.90;;;2.45;98.34;97131.22;5248802;28;20204;-66
2022/01/08 03:32:09;;;;;;;5.60;5.10;;;1.70;99.90;;;2.41;98.77;97106.53;5245958;28;20218;-67
2022/01/08 03:34:43;;;;;;;5.17;4.73;;;1.70;99.90;;;2.31;97.96;97120.06;5247915;28;20723;-66
2022/01/08 03:37:17;;;;;;;5.17;4.70;;;1.70;99.90;;;2.39;98.19;97110.59;5246435;28;20255;-67
2022/01/08 03:39:50;;;;;;;5.13;4.67;;;1.80;99.90;;;2.37;98.30;97099.50;5245862;28;20200;-66
2022/01/08 03:42:23;;;;;;;5.40;5.10;;;1.70;99.90;;;2.36;97.69;97098.63;5245980;28;20763;-66
2022/01/08 03:44:56;;;;;;;4.93;4.60;;;1.80;99.90;;;2.41;97.89;97093.94;5247513;28;20657;-66
2022/01/08 03:47:42;;;;;;;4.83;4.47;;;1.80;99.90;;;2.46;98.66;97090.09;5242496;28;20196;-66
2022/01/08 03:50:16;;;;;;;5.47;4.97;;;1.90;99.90;;;2.49;97.79;97090.34;5246378;28;20218;-66
2022/01/08 03:52:50;;;;;;;5.30;4.60;;;1.90;99.90;;;2.67;97.54;97085.78;5248140;28;20607;-66
2022/01/08 03:55:23;;;;;;;6.53;4.97;;;2.00;99.90;;;2.75;95.80;97078.78;5244944;28;20218;-65
2022/01/08 03:57:56;;;;;;;5.97;5.53;;;2.10;99.90;;;2.82;95.06;97083.53;5247573;28;20643;-65
2022/01/08 04:00:30;;;;;;;4.93;4.63;;;2.20;99.90;;;2.94;95.13;97081.91;5247525;28;20592;-67
2022/01/08 04:03:04;;;;;;;5.80;4.90;;;2.20;99.90;;;2.94;93.98;97084.41;5246493;28;20232;-66
2022/01/08 04:05:37;;;;;;;5.20;4.70;;;2.30;99.90;;;2.98;93.91;97083.91;5245576;28;20228;-66
2022/01/08 04:08:11;;;;;;;5.80;5.20;;;2.40;99.90;;;2.96;93.31;97094.63;5248115;28;20285;-66
2022/01/08 04:10:44;;;;;;;7.63;6.80;;;2.40;99.90;;;3.08;93.85;97096.41;5242283;28;20210;-66
2022/01/08 04:13:22;;;;;;;5.87;5.47;;;2.40;99.90;;;3.09;92.83;97088.09;5246177;28;20206;-66
2022/01/08 04:15:59;;;;;;;5.10;4.70;;;2.50;99.90;;;3.15;92.18;97091.06;5245935;28;20194;-66
2022/01/08 04:18:32;;;;;;;6.43;5.83;;;2.50;99.90;;;3.09;92.98;97093.13;5246118;28;20195;-66
2022/01/08 04:21:25;;;;;;;12.37;11.17;;;2.50;99.90;;;3.10;94.01;97094.00;5246730;28;20227;-66
2022/01/08 04:24:04;;;;;;;6.03;5.63;;;2.50;99.90;;;3.09;94.12;97093.13;5247167;28;20185;-66
2022/01/08 04:26:37;;;;;;;4.70;4.30;;;2.40;99.90;;;3.21;93.59;97099.84;5244312;28;20198;-65
2022/01/08 04:29:11;;;;;;;5.40;5.00;;;2.40;99.90;;;3.14;94.85;97096.84;5246101;28;20236;-67
2022/01/08 04:31:44;;;;;;;11.37;8.83;;;2.40;99.90;;;3.15;95.46;97093.56;5247340;28;20227;-66
2022/01/08 04:34:17;;;;;;;25.83;19.17;;;2.40;99.90;;;3.04;95.77;97104.53;5245395;28;20560;-66
2022/01/08 04:36:50;;;;;;;7.03;6.43;;;2.40;99.90;;;3.04;95.86;97102.00;5245411;28;20551;-66
2022/01/08 04:39:24;;;;;;;5.30;5.00;;;2.40;99.90;;;3.01;96.50;97094.22;5245009;28;20667;-66
2022/01/08 04:41:57;;;;;;;4.60;4.30;;;2.30;99.90;;;2.99;97.07;97100.78;5243403;28;20222;-66
2022/01/08 04:44:30;;;;;;;43.60;31.70;;;2.30;99.90;;;2.97;97.68;97092.22;5244954;28;20200;-67
2022/01/08 04:47:04;;;;;;;10.17;9.17;;;2.30;99.90;;;2.85;97.72;97098.88;5246118;28;20200;-65
2022/01/08 04:49:37;;;;;;;4.57;4.27;;;2.20;99.90;;;2.76;98.53;97096.56;5246311;28;20598;-65
2022/01/08 04:52:10;;;;;;;5.17;4.87;;;2.20;99.90;;;2.70;99.57;97089.41;5246947;28;20219;-66
2022/01/08 04:54:44;;;;;;;12.33;11.13;;;2.10;99.90;;;2.68;100.00;97088.41;5245949;28;20199;-66
2022/01/08 04:57:17;;;;;;;6.57;6.07;;;2.20;99.90;;;2.65;100.00;97092.38;5244775;28;20199;-66
2022/01/08 04:59:50;;;;;;;4.70;4.30;;;2.00;99.90;;;2.69;99.76;97092.72;5246216;28;20650;-66
2022/01/08 05:02:23;;;;;;;4.27;3.97;;;2.10;99.90;;;2.65;100.00;97098.28;5241080;28;20222;-66
2022/01/08 05:04:56;;;;;;;4.13;3.83;;;2.10;99.90;;;2.65;100.00;97098.28;5245352;28;20207;-66
2022/01/08 05:07:29;;;;;;;4.80;4.50;;;2.10;99.90;;;2.63;100.00;97097.31;5245318;28;20292;-66
2022/01/08 05:10:04;;;;;;;4.90;4.60;;;2.00;99.90;;;2.63;100.00;97099.84;5243609;28;20247;-66
2022/01/08 05:12:38;;;;;;;4.53;4.10;;;2.00;99.90;;;2.60;100.00;97099.56;5246038;28;20238;-65
2022/01/08 05:15:12;;;;;;;4.73;4.43;;;2.00;99.90;;;2.50;100.00;97101.31;5244218;28;20199;-66
2022/01/08 05:17:52;;;;;;;4.23;3.93;;;1.90;99.90;;;2.48;100.00;97108.75;5244668;28;20302;-66
2022/01/08 05:20:30;;;;;;;5.03;4.63;;;1.90;99.90;;;2.44;100.00;97106.78;5243556;28;20695;-65
2022/01/08 05:23:04;;;;;;;4.90;4.50;;;1.90;99.90;;;2.36;100.00;97112.88;5245778;28;20228;-66
2022/01/08 05:25:39;;;;;;;5.13;4.67;;;1.80;99.90;;;2.33;100.00;97113.50;5246142;28;20189;-66
2022/01/08 05:28:12;;;;;;;4.40;4.10;;;1.80;99.90;;;2.32;100.00;97119.34;5246307;28;20644;-66
2022/01/08 05:30:45;;;;;;;5.47;4.80;;;1.80;99.90;;;2.29;100.00;97121.63;5244884;28;20223;-65
2022/01/08 05:33:18;;;;;;;4.30;4.00;;;1.80;99.90;;;2.39;100.00;97116.50;5245714;28;20197;-67
2022/01/08 05:35:51;;;;;;;3.20;3.10;;;1.90;99.90;;;2.71;100.00;97113.88;5244762;28;20201;-66
2022/01/08 05:38:24;;;;;;;3.27;3.07;;;2.10;99.90;;;2.90;100.00;97122.81;5244929;28;20203;-66
2022/01/08 05:40:58;;;;;;;2.93;2.73;;;2.30;99.90;;;2.97;100.00;97130.06;5246530;28;20190;-67
2022/01/08 05:43:31;;;;;;;2.80;2.70;;;2.40;99.90;;;2.97;100.00;97132.59;5245692;28;20641;-66
2022/01/08 05:46:04;;;;;;;2.47;2.37;;;2.40;99.90;;;2.91;100.00;97137.19;5245115;28;20203;-66
2022/01/08 05:48:39;;;;;;;2.40;2.30;;;2.40;99.90;;;2.94;100.00;97143.34;5245600;28;20207;-66
2022/01/08 05:51:13;;;;;;;2.83;2.73;;;2.40;99.90;;;2.91;100.00;97147.28;5242456;28;20224;-66
2022/01/08 05:53:46;;;;;;;2.87;2.67;;;2.40;99.90;;;2.89;100.00;97143.75;5244230;28;20204;-66
2022/01/08 05:56:21;;;;;;;2.33;2.23;;;2.40;99.90;;;2.92;100.00;97147.41;5244805;28;20199;-66
2022/01/08 05:58:54;;;;;;;2.77;2.67;;;2.30;99.90;;;2.87;100.00;97160.47;5239663;28;20192;-66
2022/01/08 06:01:27;;;;;;;2.70;2.60;;;2.20;99.90;;;2.85;100.00;97167.03;5242439;28;20537;-66
2022/01/08 06:04:01;;;;;;;2.03;1.93;;;2.30;99.90;;;2.86;100.00;97172.19;5245384;28;21346;-66
2022/01/08 06:06:35;;;;;;;2.30;2.20;;;2.20;99.90;;;2.95;100.00;97179.56;5242758;28;20545;-66
2022/01/08 06:09:08;;;;;;;2.40;2.30;;;2.30;99.90;;;2.69;100.00;97188.59;5246286;28;20196;-66
2022/01/08 06:11:43;;;;;;;2.87;2.77;;;2.10;99.90;;;2.47;100.00;97206.22;5248136;28;20692;-66
2022/01/08 06:14:16;;;;;;;2.57;2.47;;;2.00;99.90;;;2.41;100.00;97222.53;5250039;28;20210;-66
2022/01/08 06:16:49;;;;;;;2.60;2.50;;;2.00;99.90;;;2.48;100.00;97222.22;5247617;28;20197;-65
2022/01/08 06:19:22;;;;;;;3.00;2.90;;;2.00;99.90;;;2.40;100.00;97224.16;5249459;28;20229;-66
2022/01/08 06:21:55;;;;;;;2.60;2.50;;;2.00;99.90;;;2.50;100.00;97240.91;5248696;28;20298;-66
2022/01/08 06:24:29;;;;;;;2.77;2.67;;;2.00;99.90;;;2.52;100.00;97236.88;5248872;28;20197;-66
2022/01/08 06:27:04;;;;;;;2.47;2.37;;;2.00;99.90;;;2.59;100.00;97234.03;5243866;28;20200;-66
2022/01/08 06:29:37;;;;;;;2.63;2.53;;;1.90;99.90;;;2.48;100.00;97247.44;5248570;28;20225;-66
2022/01/08 06:32:10;;;;;;;2.70;2.60;;;1.90;99.90;;;2.36;100.00;97249.03;5248313;28;20223;-66
2022/01/08 06:34:43;;;;;;;2.40;2.30;;;1.80;99.90;;;2.43;100.00;97253.78;5248263;28;20577;-66
2022/01/08 06:37:16;;;;;;;3.10;3.00;;;1.90;99.90;;;2.44;100.00;97264.00;5248035;28;20291;-66
2022/01/08 06:39:50;;;;;;;2.27;2.17;;;1.80;99.90;;;2.42;100.00;97274.72;5248751;28;20664;-66
2022/01/08 06:42:25;;;;;;;2.33;2.23;;;1.80;99.90;;;2.29;100.00;97288.03;5249330;28;20212;-66
2022/01/08 06:44:58;;;;;;;2.27;2.17;;;1.80;99.90;;;2.22;100.00;97296.72;5247403;28;20196;-66
2022/01/08 06:47:32;;;;;;;2.27;2.17;;;1.70;99.90;;;2.24;100.00;97300.25;5246289;28;20204;-66
2022/01/08 06:50:06;;;;;;;2.37;2.27;;;1.70;99.90;;;2.00;100.00;97320.94;5247943;28;20251;-66
2022/01/08 06:52:40;;;;;;;2.50;2.40;;;1.60;99.90;;;2.21;100.00;97334.41;5247842;28;20725;-66
2022/01/08 06:55:13;;;;;;;2.90;2.70;;;1.50;99.90;;;2.01;100.00;97341.25;5246763;28;20200;-66
2022/01/08 06:57:47;;;;;;;2.83;2.73;;;1.50;99.90;;;1.88;100.00;97357.75;5248502;28;20639;-66
2022/01/08 07:00:20;;;;;;;2.67;2.57;;;1.50;99.90;;;1.85;100.00;97370.09;5247628;28;20200;-66
2022/01/08 07:02:53;;;;;;;2.80;2.70;;;1.50;99.90;;;1.87;100.00;97373.66;5246618;28;20585;-66
2022/01/08 07:05:27;;;;;;;3.23;3.13;;;1.50;99.90;;;1.94;100.00;97388.50;5245856;28;20222;-66
2022/01/08 07:08:00;;;;;;;3.40;3.23;;;1.50;99.90;;;1.99;100.00;97397.31;5246693;28;20204;-66
2022/01/08 07:10:34;;;;;;;3.83;3.63;;;1.50;99.90;;;1.97;100.00;97402.22;5245209;28;20221;-66
2022/01/08 07:13:08;;;;;;;3.87;3.67;;;1.50;99.90;;;1.96;100.00;97415.59;5243687;28;20303;-66
2022/01/08 07:15:42;;;;;;;3.30;3.20;;;1.50;99.90;;;2.05;100.00;97434.75;5242861;28;20203;-66
2022/01/08 07:18:15;;;;;;;3.83;3.63;;;1.60;99.90;;;1.93;100.00;97437.13;5246633;28;20197;-66
2022/01/08 07:20:48;;;;;;;3.43;3.33;;;1.50;99.90;;;1.98;100.00;97445.97;5239474;28;20587;-66
2022/01/08 07:23:21;;;;;;;3.83;3.63;;;1.50;99.90;;;1.92;100.00;97470.66;5240164;28;20640;-66
2022/01/08 07:25:54;;;;;;;3.67;3.47;;;1.50;99.90;;;1.84;100.00;97477.56;5242267;28;20192;-66
2022/01/08 07:28:28;;;;;;;4.00;3.80;;;1.40;99.90;;;1.91;100.00;97474.78;5247630;28;20192;-67
2022/01/08 07:31:01;;;;;;;4.93;4.73;;;1.50;99.90;;;1.94;100.00;97490.16;5247018;28;20231;-66
2022/01/08 07:33:34;;;;;;;4.30;4.10;;;1.50;99.90;;;1.99;100.00;97506.56;5247671;28;20196;-66
2022/01/08 07:36:07;;;;;;;4.90;4.60;;;1.50;99.90;;;1.96;100.00;97502.91;5246919;28;20200;-65
2022/01/08 07:38:40;;;;;;;5.27;4.97;;;1.50;99.90;;;2.01;100.00;97522.69;5247467;28;20200;-66
2022/01/08 07:41:13;;;;;;;5.83;5.43;;;1.50;99.90;;;2.05;100.00;97523.84;5245021;28;20223;-66
2022/01/08 07:43:48;;;;;;;5.40;5.00;;;1.50;99.90;;;1.98;100.00;97532.53;5246803;28;20597;-66
2022/01/08 07:46:21;;;;;;;5.00;4.70;;;1.50;99.90;;;1.99;100.00;97543.47;5245861;28;20230;-65
2022/01/08 07:48:54;;;;;;;6.60;6.10;;;1.50;99.90;;;2.12;100.00;97555.47;5247079;28;20204;-67
2022/01/08 07:51:27;;;;;;;5.77;5.27;;;1.60;99.90;;;2.04;100.00;97554.84;5244141;28;20227;-66
2022/01/08 07:54:00;;;;;;;5.50;5.10;;;1.50;99.90;;;1.99;100.00;97563.66;5246816;28;20192;-67
2022/01/08 07:56:34;;;;;;;4.83;4.43;;;1.50;99.90;;;1.94;100.00;97573.31;5247103;28;20208;-67
2022/01/08 07:59:09;;;;;;;4.77;4.47;;;1.40;99.90;;;2.03;100.00;97573.22;5247076;28;20676;-66
2022/01/08 08:01:42;;;;;;;5.13;4.83;;;1.50;99.90;;;2.10;100.00;97592.28;5245762;28;20617;-64
2022/01/08 08:04:15;;;;;;;4.30;4.10;;;1.60;99.90;;;2.01;100.00;97602.47;5244746;28;20196;-66
2022/01/08 08:06:49;;;;;;;4.13;3.90;;;1.50;99.90;;;2.05;100.00;97607.00;5247027;28;20578;-67
2022/01/08 08:09:22;;;;;;;5.10;4.70;;;1.50;99.90;;;2.03;100.00;97623.63;5246033;28;20689;-66
2022/01/08 08:11:55;;;;;;;4.80;4.40;;;1.50;99.90;;;1.83;100.00;97626.06;5238852;28;20220;-66
2022/01/08 08:14:29;;;;;;;3.80;3.60;;;1.40;99.90;;;1.91;100.00;97628.50;5240888;28;20211;-65
2022/01/08 08:17:02;;;;;;;3.90;3.70;;;1.40;99.90;;;1.85;100.00;97642.22;5240979;28;20591;-66
2022/01/08 08:19:35;;;;;;;3.37;3.20;;;1.40;99.90;;;1.96;100.00;97644.03;5243819;28;20690;-66
2022/01/08 08:22:09;;;;;;;3.50;3.30;;;1.40;99.90;;;1.98;100.00;97642.53;5243443;28;20209;-66
2022/01/08 08:24:42;;;;;;;4.33;4.03;;;1.50;99.90;;;2.13;100.00;97653.03;5240048;28;20226;-66
2022/01/08 08:27:16;;;;;;;4.07;3.87;;;1.50;99.90;;;2.01;100.00;97663.84;5244620;28;20228;-66
2022/01/08 08:29:50;;;;;;;4.07;3.87;;;1.50;99.90;;;2.04;100.00;97660.69;5242166;28;20204;-65
2022/01/08 08:32:23;;;;;;;4.43;4.17;;;1.50;99.90;;;2.01;100.00;97663.84;5245208;28;20319;-66
2022/01/08 08:34:56;;;;;;;4.90;4.60;;;1.50;99.90;;;2.07;100.00;97663.47;5244336;28;20254;-67
2022/01/08 08:37:29;;;;;;;5.33;5.00;;;1.50;99.90;;;2.11;100.00;97662.09;5244693;28;20264;-66
2022/01/08 08:40:03;;;;;;;6.37;5.90;;;1.50;99.90;;;1.98;100.00;97681.22;5245704;28;20196;-66
2022/01/08 08:42:37;;;;;;;6.30;5.90;;;1.50;99.90;;;1.95;100.00;97677.56;5239539;28;20231;-66
2022/01/08 08:45:12;;;;;;;6.03;5.63;;;1.40;99.90;;;1.89;100.00;97687.06;5240702;28;20663;-66
2022/01/08 08:47:46;;;;;;;6.77;6.27;;;1.40;99.90;;;1.90;100.00;97684.69;5245588;28;20211;-66
2022/01/08 08:50:19;;;;;;;6.27;5.83;;;1.30;99.90;;;1.88;100.00;97690.34;5245839;28;20212;-66
2022/01/08 08:52:54;;;;;;;7.17;6.57;;;1.30;99.90;;;1.83;100.00;97699.16;5229172;28;20232;-67
2022/01/08 08:55:28;;;;;;;7.23;6.63;;;1.20;99.90;;;1.76;100.00;97695.22;5244659;28;20218;-66
2022/01/08 08:58:01;;;;;;;7.03;6.53;;;1.20;99.90;;;1.71;100.00;97707.38;5245048;28;20655;-67
2022/01/08 09:00:35;;;;;;;9.73;8.80;;;1.20;99.90;;;1.76;100.00;97706.16;5247216;28;20276;-66
2022/01/08 09:03:09;;;;;;;9.93;9.00;;;1.20;99.90;;;1.78;100.00;97709.72;5244847;28;20239;-65
2022/01/08 09:05:42;;;;;;;10.00;9.03;;;1.20;99.90;;;1.88;100.00;97710.50;5246374;28;20197;-66
2022/01/08 09:08:15;;;;;;;8.87;8.07;;;1.20;99.90;;;1.88;100.00;97725.63;5246509;28;20190;-66
2022/01/08 09:10:48;;;;;;;8.67;7.97;;;1.20;99.90;;;1.86;100.00;97727.13;5245034;28;20241;-67
2022/01/08 09:13:24;;;;;;;8.97;8.07;;;1.30;99.90;;;1.89;100.00;97728.31;5245644;28;20263;-67
2022/01/08 09:15:59;;;;;;;10.27;9.20;;;1.30;99.90;;;1.92;100.00;97727.69;5244412;28;20656;-67
2022/01/08 09:18:32;;;;;;;11.13;8.53;;;1.40;99.90;;;1.90;100.00;97742.66;5245585;28;20196;-67
2022/01/08 09:21:06;;;;;;;9.63;8.73;;;1.40;99.90;;;2.10;100.00;97739.38;5245644;28;20209;-67
2022/01/08 09:23:39;;;;;;;10.00;8.53;;;1.50;99.90;;;2.14;100.00;97751.47;5246588;28;20198;-68
2022/01/08 09:26:12;;;;;;;8.87;8.00;;;1.50;99.90;;;2.07;100.00;97748.31;5241787;28;20546;-65
2022/01/08 09:28:45;;;;;;;9.70;8.80;;;1.50;99.90;;;2.15;100.00;97748.22;5243120;28;20204;-65
2022/01/08 09:31:20;;;;;;;9.93;8.60;;;1.50;99.90;;;2.23;100.00;97742.22;5241600;28;20708;-64
2022/01/08 09:33:53;;;;;;;9.00;8.07;;;1.60;99.90;;;2.25;100.00;97749.91;5243635;28;20197;-66
2022/01/08 09:36:27;;;;;;;7.80;7.10;;;1.70;99.90;;;2.53;100.00;97748.13;5241636;28;20196;-64
2022/01/08 09:39:01;;;;;;;7.57;6.77;;;1.80;99.90;;;2.50;100.00;97750.38;5246191;28;20196;-64
2022/01/08 09:41:35;;;;;;;7.33;6.63;;;1.80;99.90;;;2.56;100.00;97745.84;5244051;28;20224;-65
2022/01/08 09:44:08;;;;;;;6.73;6.20;;;1.90;99.90;;;2.65;100.00;97758.38;5244220;28;20690;-64
2022/01/08 09:46:44;;;;;;;9.80;6.63;;;1.90;99.90;;;2.63;100.00;97762.41;5243664;28;20193;-65
2022/01/08 09:49:17;;;;;;;7.50;6.70;;;2.00;99.90;;;2.66;100.00;97768.63;5244463;28;20296;-64
2022/01/08 09:51:50;;;;;;;6.37;5.77;;;2.00;99.90;;;2.67;100.00;97772.91;5243964;28;20220;-65
2022/01/08 09:54:24;;;;;;;6.43;5.53;;;2.00;99.90;;;2.78;100.00;97776.34;5242786;28;20193;-65
2022/01/08 09:56:58;;;;;;;6.70;6.10;;;2.10;99.90;;;2.86;100.00;97789.59;5242551;28;20207;-65
2022/01/08 09:59:31;;;;;;;7.93;6.00;;;2.20;99.90;;;3.02;100.00;97784.22;5241700;28;20549;-64
2022/01/08 10:02:06;;;;;;;6.87;5.90;;;2.20;99.90;;;3.02;100.00;97786.75;5238963;28;20222;-65
2022/01/08 10:04:41;;;;;;;7.67;5.30;;;2.20;99.90;;;2.94;100.00;97779.38;5241884;28;20200;-65
2022/01/08 10:07:22;;;;;;;6.40;5.13;;;2.30;99.90;;;2.86;100.00;97780.41;5241679;28;20560;-64
2022/01/08 10:10:10;;;;;;;6.30;5.73;;;2.30;99.90;;;2.93;100.00;97781.81;5240368;28;20296;-66
2022/01/08 10:12:51;;;;;;;7.67;6.90;;;2.30;99.90;;;2.98;100.00;97780.56;5241685;28;20234;-65
2022/01/08 10:18:26;;;;;;;5.80;4.30;;;2.40;99.90;;;3.29;100.00;97773.00;5243288;28;20198;-65
2022/01/08 10:21:02;;;;;;;4.83;4.20;;;2.40;99.90;;;3.26;100.00;97783.78;5241577;28;20658;-65
2022/01/08 10:23:35;;;;;;;5.17;4.37;;;2.50;99.90;;;3.36;100.00;97777.81;5243437;28;20199;-66
2022/01/08 10:26:10;;;;;;;7.70;4.50;;;2.60;99.90;;;3.42;100.00;97780.84;5241064;28;20196;-65
2022/01/08 10:28:47;;;;;;;5.30;4.20;;;2.60;99.90;;;3.56;100.00;97782.88;5241580;28;20213;-65
2022/01/08 10:31:23;;;;;;;5.33;4.30;;;2.70;99.90;;;3.52;100.00;97788.47;5240111;28;20256;-65
2022/01/08 10:34:08;;;;;;;4.70;4.10;;;2.70;99.90;;;3.59;100.00;97780.59;5242680;28;20196;-65
2022/01/08 10:36:43;;;;;;;4.60;4.20;;;2.80;99.90;;;3.58;100.00;97785.56;5241336;28;20206;-66
2022/01/08 10:39:21;;;;;;;6.93;4.37;;;2.80;99.90;;;3.63;100.00;97781.72;5239003;28;20205;-66
2022/01/08 10:41:55;;;;;;;4.50;4.10;;;2.80;99.90;;;3.66;100.00;97776.06;5242632;28;20238;-65
2022/01/08 10:44:31;;;;;;;4.93;4.13;;;2.90;99.90;;;3.75;98.13;97771.75;5241575;28;20650;-64
2022/01/08 10:47:08;;;;;;;3.97;3.27;;;2.90;99.90;;;3.73;99.36;97778.34;5241548;28;20210;-65
2022/01/08 10:49:48;;;;;;;4.17;3.87;;;2.90;99.90;;;3.75;99.77;97776.78;5237079;28;20606;-65
2022/01/08 10:52:22;;;;;;;7.87;4.70;;;2.90;99.90;;;3.70;98.04;97773.03;5243297;28;20223;-65
2022/01/08 10:54:57;;;;;;;4.50;4.07;;;2.90;99.90;;;3.74;96.89;97787.69;5241108;28;20560;-65
2022/01/08 10:57:35;;;;;;;4.43;3.40;;;2.90;99.90;;;3.68;93.11;97779.59;5245812;28;20521;-66
2022/01/08 11:00:13;;;;;;;4.83;3.73;;;2.90;99.90;;;3.66;93.56;97778.56;5245959;28;20717;-67
2022/01/08 11:02:46;;;;;;;5.57;4.50;;;2.90;99.90;;;3.56;95.15;97775.31;5245788;28;20230;-65
2022/01/08 11:05:20;;;;;;;5.20;3.97;;;2.90;99.90;;;3.70;96.61;97770.50;5244663;28;20290;-66
2022/01/08 11:07:53;;;;;;;4.43;4.10;;;3.00;99.90;;;3.73;96.67;97770.75;5244908;28;20213;-64
2022/01/08 11:10:27;;;;;;;4.17;3.87;;;3.10;99.90;;;3.83;95.76;97775.78;5242660;28;20597;-64
2022/01/08 11:13:00;;;;;;;4.30;3.90;;;3.20;99.90;;;3.88;95.50;97774.53;5241334;28;20222;-65